createdAt,value
2022-08-12T00:00:03.869Z,24.10
2022-08-12T00:02:51.507Z,24.00
2022-08-12T00:05:39.810Z,24.00
2022-08-12T00:08:46.049Z,24.00
2022-08-12T00:11:33.051Z,24.00
2022-08-12T00:14:19.115Z,24.10
2022-08-12T00:17:07.345Z,24.10
2022-08-12T00:19:54.687Z,24.10
2022-08-12T00:22:41.448Z,24.00
2022-08-12T00:26:05.755Z,23.90
2022-08-12T00:28:34.511Z,23.90
2022-08-12T00:31:20.651Z,24.00
2022-08-12T00:34:06.447Z,23.90
2022-08-12T00:36:54.055Z,23.90
2022-08-12T00:39:40.753Z,23.90
2022-08-12T00:42:11.829Z,23.90
2022-08-12T00:44:42.277Z,23.80
2022-08-12T00:47:25.143Z,23.80
2022-08-12T00:49:55.370Z,23.90
2022-08-12T00:52:25.698Z,23.90
2022-08-12T00:54:57.254Z,23.90
2022-08-12T00:57:27.448Z,23.80
2022-08-12T00:59:58.397Z,23.80
2022-08-12T01:02:28.641Z,23.80
2022-08-12T01:05:16.948Z,23.80
2022-08-12T01:08:06.404Z,23.70
2022-08-12T01:10:55.187Z,23.80
2022-08-12T01:13:24.594Z,23.80
2022-08-12T01:15:55.508Z,23.80
2022-08-12T01:18:25.709Z,23.70
2022-08-12T01:21:04.254Z,23.70
2022-08-12T01:24:29.549Z,23.60
2022-08-12T01:26:54.707Z,23.60
2022-08-12T01:29:28.647Z,23.50
2022-08-12T01:32:06.333Z,23.40
2022-08-12T01:34:38.572Z,23.50
2022-08-12T01:37:08.819Z,23.50
2022-08-12T01:40:33.383Z,23.40
2022-08-12T01:42:35.612Z,23.40
2022-08-12T01:45:04.975Z,23.40
2022-08-12T01:47:55.083Z,23.40
2022-08-12T01:50:29.804Z,23.40
2022-08-12T01:53:05.205Z,23.40
2022-08-12T01:55:38.336Z,23.40
2022-08-12T01:58:24.140Z,23.40
2022-08-12T02:00:58.695Z,23.30
2022-08-12T02:04:14.166Z,23.30
2022-08-12T02:07:14.616Z,23.30
2022-08-12T02:10:50.237Z,23.30
2022-08-12T02:13:08.768Z,23.30
2022-08-12T02:15:46.708Z,23.30
2022-08-12T02:18:25.566Z,23.20
2022-08-12T02:21:01.615Z,23.20
2022-08-12T02:23:31.909Z,23.20
2022-08-12T02:26:05.434Z,23.10
2022-08-12T02:28:33.903Z,23.10
2022-08-12T02:31:06.784Z,23.10
2022-08-12T02:33:35.699Z,23.10
2022-08-12T02:36:04.760Z,23.00
2022-08-12T02:38:33.855Z,23.00
2022-08-12T02:41:05.294Z,22.90
2022-08-12T02:43:41.514Z,22.90
2022-08-12T02:46:14.708Z,22.90
2022-08-12T02:48:48.019Z,22.90
2022-08-12T02:51:19.438Z,22.90
2022-08-12T02:54:04.962Z,22.90
2022-08-12T02:56:38.006Z,22.90
2022-08-12T02:59:06.833Z,22.80
2022-08-12T03:01:47.799Z,22.70
2022-08-12T03:04:26.774Z,22.70
2022-08-12T03:07:03.172Z,22.70
2022-08-12T03:09:40.720Z,22.60
2022-08-12T03:12:25.681Z,22.70
2022-08-12T03:14:56.033Z,22.70
2022-08-12T03:17:30.388Z,22.60
2022-08-12T03:20:10.126Z,22.50
2022-08-12T03:22:41.459Z,22.50
2022-08-12T03:25:17.205Z,22.40
2022-08-12T03:27:51.765Z,22.40
2022-08-12T03:30:20.670Z,22.40
2022-08-12T03:32:52.499Z,22.40
2022-08-12T03:35:41.477Z,22.30
2022-08-12T03:38:16.118Z,22.30
2022-08-12T03:41:14.657Z,22.30
2022-08-12T03:44:09.103Z,22.30
2022-08-12T03:47:00.456Z,22.20
2022-08-12T03:49:47.837Z,22.20
2022-08-12T03:52:33.424Z,22.10
2022-08-12T03:55:19.433Z,22.10
2022-08-12T03:58:08.375Z,22.10
2022-08-12T04:00:38.483Z,22.20
2022-08-12T04:03:27.700Z,22.10
2022-08-12T04:05:57.230Z,22.00
2022-08-12T04:08:26.815Z,22.10
2022-08-12T04:11:12.827Z,22.10
2022-08-12T04:13:41.772Z,22.00
2022-08-12T04:16:13.665Z,21.90
2022-08-12T04:18:42.472Z,21.90
2022-08-12T04:21:12.489Z,22.00
2022-08-12T04:23:46.339Z,22.00
2022-08-12T04:26:17.360Z,22.00
2022-08-12T04:28:45.767Z,22.00
2022-08-12T04:31:14.266Z,21.90
2022-08-12T04:33:43.828Z,21.90
2022-08-12T04:36:13.662Z,21.90
2022-08-12T04:38:43.133Z,21.70
2022-08-12T04:41:11.699Z,21.70
2022-08-12T04:44:00.129Z,21.60
2022-08-12T04:46:31.945Z,21.60
2022-08-12T04:49:03.647Z,21.50
2022-08-12T04:51:34.029Z,21.60
2022-08-12T04:54:03.502Z,21.50
2022-08-12T04:56:35.430Z,21.60
2022-08-12T04:59:04.410Z,21.70
2022-08-12T05:01:32.884Z,21.70
2022-08-12T05:04:04.027Z,21.70
2022-08-12T05:06:34.565Z,21.70
2022-08-12T05:09:03.291Z,21.70
2022-08-12T05:11:54.259Z,21.70
2022-08-12T05:14:23.978Z,21.70
2022-08-12T05:16:53.302Z,21.70
2022-08-12T05:19:22.559Z,21.70
2022-08-12T05:21:53.861Z,21.70
2022-08-12T05:24:22.428Z,21.70
2022-08-12T05:26:51.941Z,21.70
2022-08-12T05:30:06.790Z,21.70
2022-08-12T05:32:09.374Z,21.80
2022-08-12T05:34:38.108Z,21.90
2022-08-12T05:37:07.624Z,21.90
2022-08-12T05:39:35.984Z,21.90
2022-08-12T05:42:05.057Z,21.90
2022-08-12T05:44:33.835Z,22.00
2022-08-12T05:47:02.291Z,22.00
2022-08-12T05:49:30.940Z,22.10
2022-08-12T05:51:59.097Z,22.10
2022-08-12T05:54:47.698Z,22.10
2022-08-12T05:57:17.264Z,22.30
2022-08-12T05:59:45.544Z,22.10
2022-08-12T06:02:14.490Z,22.10
2022-08-12T06:04:43.527Z,22.10
2022-08-12T06:07:59.558Z,22.20
2022-08-12T06:10:05.138Z,22.30
2022-08-12T06:12:33.487Z,22.50
2022-08-12T06:15:03.114Z,22.40
2022-08-12T06:17:31.763Z,22.60
2022-08-12T06:20:27.695Z,22.70
2022-08-12T06:22:49.039Z,22.70
2022-08-12T06:25:27.775Z,22.70
2022-08-12T06:28:07.511Z,22.90
2022-08-12T06:30:39.325Z,22.70
2022-08-12T06:33:24.904Z,22.70
2022-08-12T06:35:58.943Z,22.90
2022-08-12T06:38:28.444Z,22.70
2022-08-12T06:41:19.454Z,22.80
2022-08-12T06:44:05.725Z,22.80
2022-08-12T06:46:36.848Z,23.00
2022-08-12T06:49:06.901Z,23.00
2022-08-12T06:51:35.338Z,23.10
2022-08-12T06:54:04.184Z,23.20
2022-08-12T06:57:02.292Z,23.00
2022-08-12T06:59:23.415Z,23.10
2022-08-12T07:01:52.153Z,23.20
2022-08-12T07:04:38.965Z,23.40
2022-08-12T07:07:08.842Z,23.70
2022-08-12T07:10:00.159Z,23.60
2022-08-12T07:12:28.324Z,23.70
2022-08-12T07:14:57.134Z,23.70
2022-08-12T07:17:25.642Z,23.70
2022-08-12T07:19:55.509Z,23.90
2022-08-12T07:22:26.557Z,23.90
2022-08-12T07:25:08.983Z,23.80
2022-08-12T07:27:40.900Z,23.80
2022-08-12T07:30:10.870Z,23.90
2022-08-12T07:32:39.818Z,24.30
2022-08-12T07:35:08.842Z,24.40
2022-08-12T07:37:42.616Z,24.40
2022-08-12T07:40:12.185Z,24.30
2022-08-12T07:42:43.631Z,24.30
2022-08-12T07:45:12.659Z,24.40
2022-08-12T07:47:43.246Z,24.40
2022-08-12T07:50:12.059Z,24.40
2022-08-12T07:52:42.843Z,24.40
2022-08-12T07:55:12.043Z,24.50
2022-08-12T07:57:54.196Z,24.50
2022-08-12T08:00:22.746Z,24.50
2022-08-12T08:02:54.744Z,24.70
2022-08-12T08:05:28.474Z,24.70
2022-08-12T08:08:01.724Z,24.70
2022-08-12T08:10:31.023Z,24.70
2022-08-12T08:13:04.965Z,24.80
2022-08-12T08:16:01.199Z,24.70
2022-08-12T08:18:25.708Z,24.90
2022-08-12T08:20:56.946Z,25.00
2022-08-12T08:23:56.200Z,25.00
2022-08-12T08:26:27.282Z,25.00
2022-08-12T08:28:57.031Z,25.00
2022-08-12T08:31:25.483Z,25.10
2022-08-12T08:34:08.962Z,25.10
2022-08-12T08:36:45.466Z,25.20
2022-08-12T08:39:16.878Z,25.10
2022-08-12T08:42:15.897Z,25.20
2022-08-12T08:44:57.829Z,25.30
2022-08-12T08:47:26.882Z,25.30
2022-08-12T08:50:00.896Z,25.30
2022-08-12T08:52:39.585Z,25.30
2022-08-12T08:55:10.399Z,25.40
2022-08-12T08:57:43.656Z,25.40
2022-08-12T09:00:29.728Z,25.40
2022-08-12T09:02:59.502Z,25.40
2022-08-12T09:05:43.240Z,25.40
2022-08-12T09:08:22.462Z,25.40
2022-08-12T09:12:07.024Z,25.50
2022-08-12T09:16:57.492Z,25.60
2022-08-12T09:22:18.577Z,25.60
2022-08-12T09:24:49.896Z,25.60
2022-08-12T09:27:19.453Z,25.70
2022-08-12T09:30:11.093Z,25.70
2022-08-12T09:33:04.415Z,25.70
2022-08-12T09:35:31.348Z,25.70
2022-08-12T09:38:01.331Z,25.80
2022-08-12T09:41:02.491Z,25.80
2022-08-12T09:43:37.424Z,25.90
2022-08-12T09:46:21.622Z,25.90
2022-08-12T09:48:56.384Z,26.00
2022-08-12T09:51:37.553Z,25.90
2022-08-12T09:54:30.503Z,25.90
2022-08-12T09:57:01.825Z,26.00
2022-08-12T10:00:16.903Z,25.90
2022-08-12T10:02:45.601Z,25.90
2022-08-12T10:05:13.748Z,25.90
2022-08-12T10:07:45.838Z,26.00
2022-08-12T10:10:22.578Z,25.90
2022-08-12T10:13:35.775Z,26.10
2022-08-12T10:16:22.202Z,26.10
2022-08-12T10:18:53.823Z,26.40
2022-08-12T10:21:36.350Z,26.50
2022-08-12T10:24:08.380Z,26.50
2022-08-12T10:26:55.305Z,26.60
2022-08-12T10:30:37.779Z,26.50
2022-08-12T10:32:44.401Z,26.30
2022-08-12T10:35:16.358Z,26.60
2022-08-12T10:38:35.355Z,26.60
2022-08-12T10:40:55.856Z,26.70
2022-08-12T10:43:55.097Z,27.00
2022-08-12T10:46:31.166Z,27.10
2022-08-12T10:49:06.244Z,27.10
2022-08-12T10:52:32.437Z,26.90
2022-08-12T10:54:42.515Z,26.90
2022-08-12T10:57:18.583Z,26.80
2022-08-12T11:00:34.542Z,26.70
2022-08-12T11:04:27.054Z,26.70
2022-08-12T11:07:10.114Z,26.70
2022-08-12T11:08:42.182Z,26.70
2022-08-12T11:11:17.926Z,26.70
2022-08-12T11:14:06.058Z,27.10
2022-08-12T11:16:41.386Z,26.90
2022-08-12T11:19:30.493Z,27.00
2022-08-12T11:22:03.273Z,27.10
2022-08-12T11:24:33.597Z,27.00
2022-08-12T11:27:07.897Z,26.90
2022-08-12T11:30:06.567Z,26.80
2022-08-12T11:32:28.404Z,26.80
2022-08-12T11:34:59.278Z,26.70
2022-08-12T11:37:27.882Z,26.70
2022-08-12T11:42:37.391Z,27.00
2022-08-12T11:45:16.494Z,27.00
2022-08-12T11:47:45.549Z,27.00
2022-08-12T11:50:19.282Z,27.00
2022-08-12T11:52:55.393Z,26.90
2022-08-12T11:55:24.860Z,27.20
2022-08-12T11:58:33.890Z,27.10
2022-08-12T12:03:46.309Z,26.90
2022-08-12T12:06:17.273Z,27.00
2022-08-12T12:08:50.838Z,27.30
2022-08-12T12:11:21.475Z,27.20
2022-08-12T12:14:06.335Z,27.30
2022-08-12T12:16:39.814Z,27.40
2022-08-12T12:19:10.434Z,27.20
2022-08-12T12:21:47.934Z,27.20
2022-08-12T12:24:22.157Z,27.20
2022-08-12T12:27:00.723Z,27.20
2022-08-12T12:30:18.829Z,27.40
2022-08-12T12:32:28.777Z,27.40
2022-08-12T12:35:14.676Z,27.20
2022-08-12T12:38:04.121Z,27.30
2022-08-12T12:40:39.574Z,27.30
2022-08-12T12:43:09.361Z,27.20
2022-08-12T12:45:44.397Z,27.20
2022-08-12T12:48:17.322Z,27.40
2022-08-12T12:50:51.630Z,27.40
2022-08-12T12:54:07.948Z,27.40
2022-08-12T12:56:16.391Z,27.20
2022-08-12T12:58:44.992Z,27.30
2022-08-12T13:01:26.716Z,27.20
2022-08-12T13:04:01.868Z,27.20
2022-08-12T13:06:32.295Z,27.30
2022-08-12T13:09:03.137Z,27.20
2022-08-12T13:11:41.175Z,27.20
2022-08-12T13:14:27.683Z,27.40
2022-08-12T13:17:02.709Z,27.30
2022-08-12T13:19:38.824Z,27.40
2022-08-12T13:22:18.641Z,27.40
2022-08-12T13:24:54.507Z,27.60
2022-08-12T13:27:28.180Z,27.60
2022-08-12T13:30:00.856Z,27.30
2022-08-12T13:32:33.287Z,27.20
2022-08-12T13:35:04.495Z,27.40
2022-08-12T13:37:54.793Z,27.50
2022-08-12T13:40:24.717Z,27.50
2022-08-12T13:42:57.505Z,27.50
2022-08-12T13:45:26.366Z,27.40
2022-08-12T13:47:57.762Z,27.40
2022-08-12T13:50:32.489Z,27.60
2022-08-12T13:53:23.131Z,27.40
2022-08-12T13:55:59.773Z,27.20
2022-08-12T13:58:32.956Z,27.40
2022-08-12T14:01:06.371Z,27.50
2022-08-12T14:03:51.341Z,27.60
2022-08-12T14:06:20.850Z,27.60
2022-08-12T14:08:50.687Z,27.70
2022-08-12T14:11:25.211Z,27.50
2022-08-12T14:14:05.978Z,27.40
2022-08-12T14:16:48.507Z,27.60
2022-08-12T14:19:24.223Z,27.60
2022-08-12T14:21:59.812Z,27.60
2022-08-12T14:24:35.626Z,27.70
2022-08-12T14:27:08.805Z,27.60
2022-08-12T14:30:05.904Z,27.60
2022-08-12T14:32:27.320Z,27.70
2022-08-12T14:34:59.937Z,27.60
2022-08-12T14:37:57.784Z,27.50
2022-08-12T14:40:18.277Z,27.60
2022-08-12T14:42:47.574Z,27.70
2022-08-12T14:45:15.906Z,27.60
2022-08-12T14:47:58.367Z,27.60
2022-08-12T14:50:57.513Z,27.60
2022-08-12T14:59:20.313Z,27.50
2022-08-12T15:01:54.547Z,27.60
2022-08-12T15:04:28.708Z,27.40
2022-08-12T15:07:02.139Z,27.50
2022-08-12T15:09:31.422Z,27.60
2022-08-12T15:12:04.154Z,27.60
2022-08-12T15:14:35.355Z,27.60
2022-08-12T15:17:07.111Z,27.50
2022-08-12T15:20:28.275Z,27.50
2022-08-12T15:22:37.442Z,27.30
2022-08-12T15:25:09.294Z,27.40
2022-08-12T15:28:04.437Z,27.40
2022-08-12T15:30:32.117Z,27.40
2022-08-12T15:33:00.836Z,27.20
2022-08-12T15:35:50.358Z,27.20
2022-08-12T15:38:25.074Z,27.30
2022-08-12T15:40:54.635Z,27.30
2022-08-12T15:43:51.084Z,27.40
2022-08-12T15:46:14.815Z,27.40
2022-08-12T15:48:46.347Z,27.50
2022-08-12T15:51:27.992Z,27.50
2022-08-12T15:54:31.068Z,27.50
2022-08-12T15:57:03.575Z,27.50
2022-08-12T15:59:51.190Z,27.50
2022-08-12T16:02:21.237Z,27.50
2022-08-12T16:04:51.544Z,27.40
2022-08-12T16:07:29.607Z,27.40
2022-08-12T16:10:05.832Z,27.40
2022-08-12T16:12:43.613Z,27.50
2022-08-12T16:15:26.316Z,27.50
2022-08-12T16:18:18.768Z,27.50
2022-08-12T16:20:46.873Z,27.50
2022-08-12T16:23:35.759Z,27.60
2022-08-12T16:26:14.861Z,27.60
2022-08-12T16:28:47.602Z,27.60
2022-08-12T16:31:23.276Z,27.50
2022-08-12T16:33:59.468Z,27.60
2022-08-12T16:36:29.400Z,27.60
2022-08-12T16:39:01.632Z,27.60
2022-08-12T16:41:33.497Z,27.50
2022-08-12T16:44:08.672Z,27.50
2022-08-12T16:46:37.959Z,27.50
2022-08-12T16:49:13.084Z,27.50
2022-08-12T16:51:46.710Z,27.60
2022-08-12T16:54:17.103Z,27.50
2022-08-12T16:56:55.352Z,27.50
2022-08-12T16:59:52.993Z,27.50
2022-08-12T17:02:31.112Z,27.60
2022-08-12T17:05:04.802Z,27.60
2022-08-12T17:07:36.286Z,27.60
2022-08-12T17:10:07.696Z,27.60
2022-08-12T17:12:38.259Z,27.60
2022-08-12T17:15:51.121Z,27.60
2022-08-12T17:18:28.373Z,27.50
2022-08-12T17:20:48.164Z,27.50
2022-08-12T17:23:19.323Z,27.50
2022-08-12T17:25:50.232Z,27.40
2022-08-12T17:28:22.659Z,27.50
2022-08-12T17:30:51.270Z,27.50
2022-08-12T17:33:33.614Z,27.40
2022-08-12T17:36:05.439Z,27.50
2022-08-12T17:38:34.859Z,27.50
2022-08-12T17:41:21.540Z,27.50
2022-08-12T17:43:58.074Z,27.40
2022-08-12T17:46:33.691Z,27.30
2022-08-12T17:49:06.882Z,27.40
2022-08-12T17:52:02.794Z,27.40
2022-08-12T17:54:32.814Z,27.40
2022-08-12T17:57:02.483Z,27.40
2022-08-12T17:59:47.653Z,27.50
2022-08-12T18:02:25.687Z,27.50
2022-08-12T18:05:04.809Z,27.50
2022-08-12T18:07:39.597Z,27.50
2022-08-12T18:10:08.856Z,27.50
2022-08-12T18:12:42.732Z,27.50
2022-08-12T18:15:26.519Z,27.50
2022-08-12T18:18:16.811Z,27.50
2022-08-12T18:20:46.357Z,27.40
2022-08-12T18:23:14.981Z,27.40
2022-08-12T18:26:17.915Z,27.30
2022-08-12T18:28:48.333Z,27.20
2022-08-12T18:31:19.642Z,27.30
2022-08-12T18:33:52.338Z,27.30
2022-08-12T18:36:22.430Z,27.30
2022-08-12T18:38:56.203Z,27.30
2022-08-12T18:41:34.461Z,27.30
2022-08-12T18:44:08.167Z,27.30
2022-08-12T18:46:53.717Z,27.30
2022-08-12T18:49:29.716Z,27.20
2022-08-12T18:52:03.867Z,27.20
2022-08-12T18:54:36.125Z,27.30
2022-08-12T18:57:19.699Z,27.30
2022-08-12T19:00:06.511Z,27.30
2022-08-12T19:02:39.899Z,27.30
2022-08-12T19:05:11.354Z,27.30
2022-08-12T19:07:49.549Z,27.40
2022-08-12T19:10:26.637Z,27.30
2022-08-12T19:13:21.150Z,27.30
2022-08-12T19:15:54.145Z,27.20
2022-08-12T19:18:30.166Z,27.20
2022-08-12T19:21:06.126Z,27.30
2022-08-12T19:23:35.963Z,27.30
2022-08-12T19:26:05.217Z,27.20
2022-08-12T19:28:44.006Z,27.30
2022-08-12T19:31:55.710Z,27.20
2022-08-12T19:34:56.284Z,27.20
2022-08-12T19:37:22.827Z,27.20
2022-08-12T19:40:09.104Z,27.10
2022-08-12T19:42:53.442Z,27.10
2022-08-12T19:45:22.229Z,27.10
2022-08-12T19:47:50.746Z,27.00
2022-08-12T19:50:20.696Z,27.00
2022-08-12T19:52:51.000Z,27.10
2022-08-12T19:55:22.597Z,27.00
2022-08-12T19:58:01.304Z,26.90
2022-08-12T20:00:30.531Z,27.00
2022-08-12T20:03:03.142Z,26.90
2022-08-12T20:06:06.056Z,27.00
2022-08-12T20:08:34.351Z,27.10
2022-08-12T20:12:12.014Z,27.10
2022-08-12T20:14:00.756Z,27.10
2022-08-12T20:17:02.402Z,27.10
2022-08-12T20:19:52.558Z,27.10
2022-08-12T20:22:24.776Z,27.10
2022-08-12T20:25:01.354Z,27.10
2022-08-12T20:28:04.348Z,27.10
2022-08-12T20:30:37.406Z,27.20
2022-08-12T20:33:17.752Z,27.10
2022-08-12T20:36:13.330Z,27.10
2022-08-12T20:38:40.299Z,26.90
2022-08-12T20:41:16.689Z,27.00
2022-08-12T20:43:49.606Z,26.90
2022-08-12T20:46:19.376Z,27.00
2022-08-12T20:48:55.235Z,27.00
2022-08-12T20:51:27.514Z,26.90
2022-08-12T20:53:59.730Z,26.90
2022-08-12T20:56:33.474Z,27.00
2022-08-12T20:59:05.453Z,27.00
2022-08-12T21:01:46.466Z,27.00
2022-08-12T21:04:36.270Z,27.10
2022-08-12T21:07:09.681Z,27.00
2022-08-12T21:09:44.327Z,27.00
2022-08-12T21:12:31.471Z,27.00
2022-08-12T21:15:17.195Z,26.90
2022-08-12T21:18:11.031Z,26.70
2022-08-12T21:20:52.463Z,26.70
2022-08-12T21:23:22.797Z,26.70
2022-08-12T21:25:56.814Z,26.70
2022-08-12T21:28:31.038Z,26.80
2022-08-12T21:32:37.459Z,26.80
2022-08-12T21:34:07.279Z,26.70
2022-08-12T21:36:39.617Z,26.80
2022-08-12T21:39:18.543Z,26.80
2022-08-12T21:41:52.280Z,26.90
2022-08-12T21:44:24.081Z,26.80
2022-08-12T21:47:20.902Z,26.80
2022-08-12T21:50:06.558Z,26.80
2022-08-12T21:52:36.263Z,26.70
2022-08-12T21:55:08.229Z,26.50
2022-08-12T21:57:53.521Z,26.20
2022-08-12T22:00:23.962Z,26.30
2022-08-12T22:04:04.305Z,26.10
2022-08-12T22:06:31.481Z,26.10
2022-08-12T22:09:16.175Z,26.10
2022-08-12T22:11:56.227Z,26.10
2022-08-12T22:14:29.943Z,26.10
2022-08-12T22:17:00.550Z,26.10
2022-08-12T22:19:35.180Z,26.00
2022-08-12T22:22:05.201Z,25.90
2022-08-12T22:24:34.311Z,25.90
2022-08-12T22:27:07.958Z,25.80
2022-08-12T22:30:16.739Z,25.70
2022-08-12T22:32:49.964Z,25.70
2022-08-12T22:35:55.481Z,25.60
2022-08-12T22:38:25.464Z,25.50
2022-08-12T22:40:55.093Z,25.50
2022-08-12T22:43:59.116Z,25.40
2022-08-12T22:46:52.050Z,25.40
2022-08-12T22:49:36.256Z,25.40
2022-08-12T22:52:10.533Z,25.30
2022-08-12T22:55:00.229Z,25.30
2022-08-12T22:57:54.417Z,25.40
2022-08-12T23:00:23.499Z,25.20
2022-08-12T23:02:58.428Z,25.20
2022-08-12T23:05:57.058Z,25.20
2022-08-12T23:08:21.902Z,25.10
2022-08-12T23:10:50.600Z,25.10
2022-08-12T23:13:43.701Z,25.00
2022-08-12T23:16:18.322Z,25.10
2022-08-12T23:19:00.176Z,25.10
2022-08-12T23:22:04.465Z,25.00
2022-08-12T23:24:26.851Z,25.10
2022-08-12T23:27:12.874Z,25.00
2022-08-12T23:29:43.938Z,24.90
2022-08-12T23:32:36.061Z,24.80
2022-08-12T23:35:08.339Z,24.80
2022-08-12T23:37:47.186Z,24.80
2022-08-12T23:40:24.699Z,24.70
2022-08-12T23:42:54.410Z,24.70
2022-08-12T23:45:30.739Z,24.70
2022-08-12T23:48:00.974Z,24.60
2022-08-12T23:50:34.434Z,24.70
2022-08-12T23:53:05.334Z,24.60
2022-08-12T23:55:40.779Z,24.60
2022-08-12T23:58:18.217Z,24.60
